Terminal Aerodrome Forecast
Issued by NWS

Home | Current Version | Previous Version | Text Only | Print | Product List | Glossary On
Versions: 1 2 3 4 5 6 7 8 9 10 11 12 13 14 15 16 17 18 19
000
FTUS46 KOTX 260530
TAFCOE
TAF
KCOE 260530Z 2606/2706 15007KT P6SM FEW070 SCT200
     FM260900 07005KT P6SM BKN200
     FM261300 05005KT P6SM FEW020 BKN200
     FM261900 08006KT P6SM BKN060 OVC120
     FM262300 06007KT P6SM -RA BKN040 OVC100
     FM270200 05006KT 6SM -RA BR OVC025=

USA.gov is the U.S. government's official web portal to all federal, state and local government web resources and services.